map of KKN home
KKN - Airport
Location
City:  Kirkenes, Norway
Name:Høybuktmoen
ICAO:ENKR
IATA:KKN

Details
Type:Airport (Aerodrome, Airfield)
Use:Public/Civil
Latitude:69°43'33"N (69.725781)
Longitude:29°53'29"E (29.891295)
Datum:other
Elevation:283 ft (86 m)
Variation:14.95°E (WMM2015 magnetic declination)
0.21° annual change
Runways:1
Longest:6939 × 148 ft (2115 × 45 m), paved

Time
Time Zone:UTC+1 (DST+2)
Local Time:

Weather
METAR:ENKR 121320Z 17009KT 9999 BKN015 M08/M09 Q1000 RMK WIND 731FT 15006KT

Related Locations
Nearby:
Farthest:NZWD: 11463 mi / 18448 km
McMurdo Station [Williams Field], Ross Island, AQ

Find:

   beyond  
but within

Other Information
Maps:
NOTAMs:
Links:
Sources:

  
flag of Norway   

Sectional Chart

Flight Planning
at skyvector.com

Satellite Image

Google Maps Satellite view

 

Copyright © 2004-2017 Karl L. Swartz. All rights reserved.
The Great Circle Mapper name and logo are trademarks of the Great Circle Mapper.
All other trademarks mentioned herein belong to their respective owners.
Please see credits for attibutions and further copyright information.

  Follow gcmap on Facebook Follow gcmap on Twitter Follow gcmap on Google+ GCmap on LinkedIn

hCard Microformat

Geo Microformat